sensor_id;sensor_type;location;lat;lon;timestamp;P1;durP1;ratioP1;P2;durP2;ratioP2
29030;SDS011;16122;50.236;11.734;2023-12-22T00:01:22;1.13;;;0.80;;
29030;SDS011;16122;50.236;11.734;2023-12-22T00:03:47;1.00;;;0.80;;
29030;SDS011;16122;50.236;11.734;2023-12-22T00:06:15;1.30;;;1.00;;
29030;SDS011;16122;50.236;11.734;2023-12-22T00:08:41;1.03;;;0.70;;
29030;SDS011;16122;50.236;11.734;2023-12-22T00:11:07;0.80;;;0.70;;
29030;SDS011;16122;50.236;11.734;2023-12-22T00:13:33;1.37;;;0.83;;
29030;SDS011;16122;50.236;11.734;2023-12-22T00:15:59;2.93;;;1.07;;
29030;SDS011;16122;50.236;11.734;2023-12-22T00:18:28;1.37;;;1.27;;
29030;SDS011;16122;50.236;11.734;2023-12-22T00:20:53;1.87;;;0.93;;
29030;SDS011;16122;50.236;11.734;2023-12-22T00:23:19;2.73;;;1.00;;
29030;SDS011;16122;50.236;11.734;2023-12-22T00:25:45;2.70;;;1.20;;
29030;SDS011;16122;50.236;11.734;2023-12-22T00:28:10;1.50;;;0.93;;
29030;SDS011;16122;50.236;11.734;2023-12-22T00:30:36;3.93;;;1.10;;
29030;SDS011;16122;50.236;11.734;2023-12-22T00:33:02;1.10;;;0.87;;
29030;SDS011;16122;50.236;11.734;2023-12-22T00:35:28;0.93;;;0.80;;
29030;SDS011;16122;50.236;11.734;2023-12-22T00:37:54;1.53;;;0.80;;
29030;SDS011;16122;50.236;11.734;2023-12-22T00:40:20;1.63;;;1.10;;
29030;SDS011;16122;50.236;11.734;2023-12-22T00:42:46;1.80;;;0.97;;
29030;SDS011;16122;50.236;11.734;2023-12-22T00:45:11;1.63;;;0.90;;
29030;SDS011;16122;50.236;11.734;2023-12-22T00:47:37;0.80;;;0.70;;
29030;SDS011;16122;50.236;11.734;2023-12-22T00:50:03;1.63;;;0.90;;
29030;SDS011;16122;50.236;11.734;2023-12-22T00:52:30;1.47;;;0.90;;
29030;SDS011;16122;50.236;11.734;2023-12-22T00:54:56;1.53;;;0.97;;
29030;SDS011;16122;50.236;11.734;2023-12-22T00:57:22;1.20;;;1.00;;
29030;SDS011;16122;50.236;11.734;2023-12-22T00:59:48;1.83;;;0.90;;
29030;SDS011;16122;50.236;11.734;2023-12-22T01:02:14;3.07;;;0.97;;
29030;SDS011;16122;50.236;11.734;2023-12-22T01:04:40;1.43;;;0.90;;
29030;SDS011;16122;50.236;11.734;2023-12-22T01:07:10;1.50;;;1.03;;
29030;SDS011;16122;50.236;11.734;2023-12-22T01:09:36;1.50;;;1.00;;
29030;SDS011;16122;50.236;11.734;2023-12-22T01:12:05;2.67;;;0.97;;
29030;SDS011;16122;50.236;11.734;2023-12-22T01:14:32;1.10;;;0.87;;
29030;SDS011;16122;50.236;11.734;2023-12-22T01:16:58;1.77;;;0.93;;
29030;SDS011;16122;50.236;11.734;2023-12-22T01:19:27;1.50;;;0.90;;
29030;SDS011;16122;50.236;11.734;2023-12-22T01:21:53;1.20;;;1.10;;
29030;SDS011;16122;50.236;11.734;2023-12-22T01:24:19;1.77;;;0.97;;
29030;SDS011;16122;50.236;11.734;2023-12-22T01:26:44;1.80;;;0.90;;
29030;SDS011;16122;50.236;11.734;2023-12-22T01:29:10;2.60;;;1.17;;
29030;SDS011;16122;50.236;11.734;2023-12-22T01:31:36;2.00;;;1.03;;
29030;SDS011;16122;50.236;11.734;2023-12-22T01:34:02;2.20;;;1.17;;
29030;SDS011;16122;50.236;11.734;2023-12-22T01:36:27;1.30;;;1.10;;
29030;SDS011;16122;50.236;11.734;2023-12-22T01:38:53;1.83;;;1.00;;
29030;SDS011;16122;50.236;11.734;2023-12-22T01:41:19;1.30;;;1.03;;
29030;SDS011;16122;50.236;11.734;2023-12-22T01:43:45;1.87;;;1.07;;
29030;SDS011;16122;50.236;11.734;2023-12-22T01:46:11;1.20;;;0.80;;
29030;SDS011;16122;50.236;11.734;2023-12-22T01:48:37;2.90;;;1.20;;
29030;SDS011;16122;50.236;11.734;2023-12-22T01:51:04;3.07;;;1.17;;
29030;SDS011;16122;50.236;11.734;2023-12-22T01:53:31;2.50;;;1.17;;
29030;SDS011;16122;50.236;11.734;2023-12-22T01:55:57;2.73;;;1.30;;
29030;SDS011;16122;50.236;11.734;2023-12-22T01:58:27;1.80;;;1.10;;
29030;SDS011;16122;50.236;11.734;2023-12-22T02:00:54;1.77;;;1.37;;
29030;SDS011;16122;50.236;11.734;2023-12-22T02:03:21;1.87;;;1.17;;
29030;SDS011;16122;50.236;11.734;2023-12-22T02:05:48;2.93;;;1.40;;
29030;SDS011;16122;50.236;11.734;2023-12-22T02:08:18;4.10;;;1.10;;
29030;SDS011;16122;50.236;11.734;2023-12-22T02:10:44;1.80;;;1.20;;
29030;SDS011;16122;50.236;11.734;2023-12-22T02:13:10;2.40;;;0.90;;
29030;SDS011;16122;50.236;11.734;2023-12-22T02:15:36;2.50;;;1.00;;
29030;SDS011;16122;50.236;11.734;2023-12-22T02:18:14;3.37;;;1.50;;
29030;SDS011;16122;50.236;11.734;2023-12-22T02:20:43;3.23;;;1.50;;
29030;SDS011;16122;50.236;11.734;2023-12-22T02:23:10;2.03;;;1.20;;
29030;SDS011;16122;50.236;11.734;2023-12-22T02:25:36;2.37;;;1.10;;
29030;SDS011;16122;50.236;11.734;2023-12-22T02:28:03;1.47;;;1.10;;
29030;SDS011;16122;50.236;11.734;2023-12-22T02:30:33;2.03;;;0.93;;
29030;SDS011;16122;50.236;11.734;2023-12-22T02:33:06;1.50;;;1.00;;
29030;SDS011;16122;50.236;11.734;2023-12-22T02:35:35;2.83;;;1.10;;
29030;SDS011;16122;50.236;11.734;2023-12-22T02:38:03;1.53;;;0.93;;
29030;SDS011;16122;50.236;11.734;2023-12-22T02:40:31;2.20;;;1.07;;
29030;SDS011;16122;50.236;11.734;2023-12-22T02:42:58;1.40;;;0.90;;
29030;SDS011;16122;50.236;11.734;2023-12-22T02:45:24;1.60;;;1.00;;
29030;SDS011;16122;50.236;11.734;2023-12-22T02:47:50;1.37;;;0.80;;
29030;SDS011;16122;50.236;11.734;2023-12-22T02:50:16;1.67;;;1.17;;
29030;SDS011;16122;50.236;11.734;2023-12-22T02:52:42;1.40;;;0.90;;
29030;SDS011;16122;50.236;11.734;2023-12-22T02:55:08;2.10;;;0.90;;
29030;SDS011;16122;50.236;11.734;2023-12-22T02:57:34;3.97;;;1.10;;
29030;SDS011;16122;50.236;11.734;2023-12-22T03:00:00;2.07;;;1.10;;
29030;SDS011;16122;50.236;11.734;2023-12-22T03:02:26;1.60;;;1.10;;
29030;SDS011;16122;50.236;11.734;2023-12-22T03:04:52;1.37;;;0.90;;
29030;SDS011;16122;50.236;11.734;2023-12-22T03:07:18;1.30;;;0.93;;
29030;SDS011;16122;50.236;11.734;2023-12-22T03:09:44;1.47;;;1.10;;
29030;SDS011;16122;50.236;11.734;2023-12-22T03:12:10;1.87;;;0.90;;
29030;SDS011;16122;50.236;11.734;2023-12-22T03:14:36;1.00;;;0.90;;
29030;SDS011;16122;50.236;11.734;2023-12-22T03:17:03;1.43;;;1.00;;
29030;SDS011;16122;50.236;11.734;2023-12-22T03:19:30;2.20;;;1.37;;
29030;SDS011;16122;50.236;11.734;2023-12-22T03:21:59;2.40;;;1.33;;
29030;SDS011;16122;50.236;11.734;2023-12-22T03:24:25;3.80;;;1.00;;
29030;SDS011;16122;50.236;11.734;2023-12-22T03:26:53;1.70;;;1.23;;
29030;SDS011;16122;50.236;11.734;2023-12-22T03:29:19;2.30;;;1.00;;
29030;SDS011;16122;50.236;11.734;2023-12-22T03:31:45;3.03;;;1.07;;
29030;SDS011;16122;50.236;11.734;2023-12-22T03:34:12;2.47;;;1.00;;
29030;SDS011;16122;50.236;11.734;2023-12-22T03:36:38;1.80;;;1.10;;
29030;SDS011;16122;50.236;11.734;2023-12-22T03:39:04;2.17;;;1.10;;
29030;SDS011;16122;50.236;11.734;2023-12-22T03:41:30;2.30;;;1.20;;
29030;SDS011;16122;50.236;11.734;2023-12-22T03:43:56;0.80;;;0.80;;
29030;SDS011;16122;50.236;11.734;2023-12-22T03:46:23;2.07;;;0.90;;
29030;SDS011;16122;50.236;11.734;2023-12-22T03:48:49;1.27;;;1.00;;
29030;SDS011;16122;50.236;11.734;2023-12-22T03:51:16;1.00;;;0.90;;
29030;SDS011;16122;50.236;11.734;2023-12-22T03:53:41;1.10;;;0.80;;
29030;SDS011;16122;50.236;11.734;2023-12-22T03:56:08;2.30;;;1.10;;
29030;SDS011;16122;50.236;11.734;2023-12-22T03:58:34;0.90;;;0.90;;
29030;SDS011;16122;50.236;11.734;2023-12-22T04:01:00;1.90;;;0.80;;
29030;SDS011;16122;50.236;11.734;2023-12-22T04:03:26;1.10;;;0.80;;
29030;SDS011;16122;50.236;11.734;2023-12-22T04:05:52;1.30;;;0.80;;
29030;SDS011;16122;50.236;11.734;2023-12-22T04:08:18;1.60;;;0.70;;
29030;SDS011;16122;50.236;11.734;2023-12-22T04:10:46;1.53;;;0.87;;
29030;SDS011;16122;50.236;11.734;2023-12-22T04:13:12;2.43;;;0.80;;
29030;SDS011;16122;50.236;11.734;2023-12-22T04:15:38;2.40;;;0.90;;
29030;SDS011;16122;50.236;11.734;2023-12-22T04:18:04;1.00;;;0.70;;
29030;SDS011;16122;50.236;11.734;2023-12-22T04:20:30;0.90;;;0.70;;
29030;SDS011;16122;50.236;11.734;2023-12-22T04:22:56;1.30;;;0.80;;
29030;SDS011;16122;50.236;11.734;2023-12-22T04:25:22;1.37;;;0.77;;
29030;SDS011;16122;50.236;11.734;2023-12-22T04:27:49;1.20;;;0.80;;
29030;SDS011;16122;50.236;11.734;2023-12-22T04:30:16;1.20;;;0.90;;
29030;SDS011;16122;50.236;11.734;2023-12-22T04:32:42;4.17;;;1.10;;
29030;SDS011;16122;50.236;11.734;2023-12-22T04:35:08;1.20;;;1.00;;
29030;SDS011;16122;50.236;11.734;2023-12-22T04:37:34;2.03;;;1.20;;
29030;SDS011;16122;50.236;11.734;2023-12-22T04:39:59;1.43;;;0.90;;
29030;SDS011;16122;50.236;11.734;2023-12-22T04:42:25;1.17;;;0.60;;
29030;SDS011;16122;50.236;11.734;2023-12-22T04:44:52;0.77;;;0.73;;
29030;SDS011;16122;50.236;11.734;2023-12-22T04:47:18;0.80;;;0.80;;
29030;SDS011;16122;50.236;11.734;2023-12-22T04:49:44;1.17;;;0.80;;
29030;SDS011;16122;50.236;11.734;2023-12-22T04:52:10;2.20;;;0.80;;
29030;SDS011;16122;50.236;11.734;2023-12-22T04:54:37;3.20;;;1.20;;
29030;SDS011;16122;50.236;11.734;2023-12-22T04:57:03;2.20;;;1.17;;
29030;SDS011;16122;50.236;11.734;2023-12-22T04:59:29;1.67;;;1.03;;
29030;SDS011;16122;50.236;11.734;2023-12-22T05:01:55;1.00;;;0.70;;
29030;SDS011;16122;50.236;11.734;2023-12-22T05:04:21;1.00;;;0.80;;
29030;SDS011;16122;50.236;11.734;2023-12-22T05:06:50;1.70;;;0.70;;
29030;SDS011;16122;50.236;11.734;2023-12-22T05:09:16;1.60;;;0.93;;
29030;SDS011;16122;50.236;11.734;2023-12-22T05:11:41;1.50;;;0.87;;
29030;SDS011;16122;50.236;11.734;2023-12-22T05:14:07;2.53;;;1.00;;
29030;SDS011;16122;50.236;11.734;2023-12-22T05:16:34;2.33;;;1.10;;
29030;SDS011;16122;50.236;11.734;2023-12-22T05:19:00;1.83;;;0.73;;
29030;SDS011;16122;50.236;11.734;2023-12-22T05:21:26;1.77;;;1.40;;
29030;SDS011;16122;50.236;11.734;2023-12-22T05:23:53;2.73;;;1.10;;
29030;SDS011;16122;50.236;11.734;2023-12-22T05:26:22;1.47;;;0.90;;
29030;SDS011;16122;50.236;11.734;2023-12-22T05:28:49;1.23;;;0.80;;
29030;SDS011;16122;50.236;11.734;2023-12-22T05:31:16;2.10;;;0.90;;
29030;SDS011;16122;50.236;11.734;2023-12-22T05:33:42;1.10;;;0.80;;
29030;SDS011;16122;50.236;11.734;2023-12-22T05:36:08;1.30;;;0.87;;
29030;SDS011;16122;50.236;11.734;2023-12-22T05:38:37;1.80;;;0.73;;
29030;SDS011;16122;50.236;11.734;2023-12-22T05:41:04;2.60;;;1.00;;
29030;SDS011;16122;50.236;11.734;2023-12-22T05:43:33;4.27;;;1.20;;
29030;SDS011;16122;50.236;11.734;2023-12-22T05:45:59;1.27;;;0.90;;
29030;SDS011;16122;50.236;11.734;2023-12-22T05:48:28;1.03;;;0.70;;
29030;SDS011;16122;50.236;11.734;2023-12-22T05:50:55;4.20;;;0.73;;
29030;SDS011;16122;50.236;11.734;2023-12-22T05:53:22;1.10;;;0.83;;
29030;SDS011;16122;50.236;11.734;2023-12-22T05:55:48;2.07;;;0.83;;
29030;SDS011;16122;50.236;11.734;2023-12-22T05:58:14;0.90;;;0.77;;
29030;SDS011;16122;50.236;11.734;2023-12-22T06:00:39;2.63;;;1.00;;
29030;SDS011;16122;50.236;11.734;2023-12-22T06:03:05;1.57;;;0.90;;
29030;SDS011;16122;50.236;11.734;2023-12-22T06:05:31;1.47;;;1.00;;
29030;SDS011;16122;50.236;11.734;2023-12-22T06:07:57;3.00;;;0.80;;
29030;SDS011;16122;50.236;11.734;2023-12-22T06:10:23;1.77;;;0.87;;
29030;SDS011;16122;50.236;11.734;2023-12-22T06:12:48;1.00;;;0.60;;
29030;SDS011;16122;50.236;11.734;2023-12-22T06:15:15;2.13;;;1.00;;
29030;SDS011;16122;50.236;11.734;2023-12-22T06:17:41;3.10;;;1.00;;
29030;SDS011;16122;50.236;11.734;2023-12-22T06:20:06;1.33;;;0.90;;
29030;SDS011;16122;50.236;11.734;2023-12-22T06:22:33;1.23;;;0.70;;
29030;SDS011;16122;50.236;11.734;2023-12-22T06:24:58;3.23;;;0.93;;
29030;SDS011;16122;50.236;11.734;2023-12-22T06:27:25;1.60;;;0.87;;
29030;SDS011;16122;50.236;11.734;2023-12-22T06:29:50;1.50;;;0.70;;
29030;SDS011;16122;50.236;11.734;2023-12-22T06:32:16;2.70;;;0.97;;
29030;SDS011;16122;50.236;11.734;2023-12-22T06:34:42;1.63;;;0.80;;
29030;SDS011;16122;50.236;11.734;2023-12-22T06:37:08;2.13;;;1.10;;
29030;SDS011;16122;50.236;11.734;2023-12-22T06:39:36;2.30;;;0.90;;
29030;SDS011;16122;50.236;11.734;2023-12-22T06:42:01;2.70;;;0.80;;
29030;SDS011;16122;50.236;11.734;2023-12-22T06:44:28;1.57;;;0.90;;
29030;SDS011;16122;50.236;11.734;2023-12-22T06:46:56;1.50;;;1.17;;
29030;SDS011;16122;50.236;11.734;2023-12-22T06:49:22;1.33;;;0.70;;
29030;SDS011;16122;50.236;11.734;2023-12-22T06:51:48;1.10;;;0.80;;
29030;SDS011;16122;50.236;11.734;2023-12-22T06:54:14;1.13;;;0.80;;
29030;SDS011;16122;50.236;11.734;2023-12-22T06:56:39;2.03;;;0.80;;
29030;SDS011;16122;50.236;11.734;2023-12-22T06:59:05;1.70;;;0.90;;
29030;SDS011;16122;50.236;11.734;2023-12-22T07:01:32;0.70;;;0.63;;
29030;SDS011;16122;50.236;11.734;2023-12-22T07:04:00;2.60;;;0.90;;
29030;SDS011;16122;50.236;11.734;2023-12-22T07:06:31;1.20;;;0.70;;
29030;SDS011;16122;50.236;11.734;2023-12-22T07:11:39;1.50;;;0.90;;
29030;SDS011;16122;50.236;11.734;2023-12-22T07:14:06;2.07;;;0.80;;
29030;SDS011;16122;50.236;11.734;2023-12-22T07:16:35;2.40;;;1.10;;
29030;SDS011;16122;50.236;11.734;2023-12-22T07:19:02;0.70;;;0.60;;
29030;SDS011;16122;50.236;11.734;2023-12-22T07:21:28;1.60;;;0.90;;
29030;SDS011;16122;50.236;11.734;2023-12-22T07:23:54;1.00;;;0.80;;
29030;SDS011;16122;50.236;11.734;2023-12-22T07:26:20;5.40;;;0.90;;
29030;SDS011;16122;50.236;11.734;2023-12-22T07:28:47;2.03;;;0.80;;
29030;SDS011;16122;50.236;11.734;2023-12-22T07:31:13;1.63;;;0.77;;
29030;SDS011;16122;50.236;11.734;2023-12-22T07:33:39;0.83;;;0.67;;
29030;SDS011;16122;50.236;11.734;2023-12-22T07:36:08;1.03;;;0.70;;
29030;SDS011;16122;50.236;11.734;2023-12-22T07:38:34;1.50;;;0.80;;
29030;SDS011;16122;50.236;11.734;2023-12-22T07:41:00;1.30;;;0.70;;
29030;SDS011;16122;50.236;11.734;2023-12-22T07:43:25;1.03;;;0.70;;
29030;SDS011;16122;50.236;11.734;2023-12-22T07:45:51;0.80;;;0.70;;
29030;SDS011;16122;50.236;11.734;2023-12-22T07:48:19;1.10;;;0.87;;
29030;SDS011;16122;50.236;11.734;2023-12-22T07:50:44;0.87;;;0.67;;
29030;SDS011;16122;50.236;11.734;2023-12-22T07:53:11;0.90;;;0.70;;
29030;SDS011;16122;50.236;11.734;2023-12-22T07:55:37;1.97;;;0.80;;
29030;SDS011;16122;50.236;11.734;2023-12-22T07:58:04;1.40;;;0.60;;
29030;SDS011;16122;50.236;11.734;2023-12-22T08:00:30;2.07;;;1.00;;
29030;SDS011;16122;50.236;11.734;2023-12-22T08:02:56;1.43;;;0.80;;
29030;SDS011;16122;50.236;11.734;2023-12-22T08:05:22;1.33;;;0.63;;
29030;SDS011;16122;50.236;11.734;2023-12-22T08:07:48;1.47;;;0.80;;
29030;SDS011;16122;50.236;11.734;2023-12-22T08:10:13;2.37;;;0.90;;
29030;SDS011;16122;50.236;11.734;2023-12-22T08:12:40;1.33;;;0.80;;
29030;SDS011;16122;50.236;11.734;2023-12-22T08:15:06;0.87;;;0.67;;
29030;SDS011;16122;50.236;11.734;2023-12-22T08:17:32;2.30;;;1.27;;
29030;SDS011;16122;50.236;11.734;2023-12-22T08:19:58;2.33;;;0.80;;
29030;SDS011;16122;50.236;11.734;2023-12-22T08:22:24;0.90;;;0.70;;
29030;SDS011;16122;50.236;11.734;2023-12-22T08:24:50;0.83;;;0.70;;
29030;SDS011;16122;50.236;11.734;2023-12-22T08:27:15;0.90;;;0.60;;
29030;SDS011;16122;50.236;11.734;2023-12-22T08:29:41;1.70;;;0.70;;
29030;SDS011;16122;50.236;11.734;2023-12-22T08:32:07;1.37;;;0.63;;
29030;SDS011;16122;50.236;11.734;2023-12-22T08:34:33;1.93;;;0.70;;
29030;SDS011;16122;50.236;11.734;2023-12-22T08:36:59;1.40;;;0.70;;
29030;SDS011;16122;50.236;11.734;2023-12-22T08:39:25;1.03;;;0.70;;
29030;SDS011;16122;50.236;11.734;2023-12-22T08:41:51;0.70;;;0.53;;
29030;SDS011;16122;50.236;11.734;2023-12-22T08:44:18;1.37;;;0.70;;
29030;SDS011;16122;50.236;11.734;2023-12-22T08:46:44;2.20;;;0.80;;
29030;SDS011;16122;50.236;11.734;2023-12-22T08:49:10;1.30;;;0.70;;
29030;SDS011;16122;50.236;11.734;2023-12-22T08:51:36;1.63;;;0.80;;
29030;SDS011;16122;50.236;11.734;2023-12-22T08:54:02;2.60;;;0.57;;
29030;SDS011;16122;50.236;11.734;2023-12-22T08:56:31;1.20;;;0.70;;
29030;SDS011;16122;50.236;11.734;2023-12-22T08:58:57;1.00;;;0.70;;
29030;SDS011;16122;50.236;11.734;2023-12-22T09:01:25;0.77;;;0.60;;
29030;SDS011;16122;50.236;11.734;2023-12-22T09:03:51;0.90;;;0.70;;
29030;SDS011;16122;50.236;11.734;2023-12-22T09:06:21;1.10;;;0.73;;
29030;SDS011;16122;50.236;11.734;2023-12-22T09:08:48;0.77;;;0.60;;
29030;SDS011;16122;50.236;11.734;2023-12-22T09:11:18;2.50;;;0.60;;
29030;SDS011;16122;50.236;11.734;2023-12-22T09:13:45;2.20;;;0.73;;
29030;SDS011;16122;50.236;11.734;2023-12-22T09:16:11;2.03;;;0.60;;
29030;SDS011;16122;50.236;11.734;2023-12-22T09:18:40;1.37;;;0.70;;
29030;SDS011;16122;50.236;11.734;2023-12-22T09:21:07;1.93;;;0.70;;
29030;SDS011;16122;50.236;11.734;2023-12-22T09:23:33;0.97;;;0.67;;
29030;SDS011;16122;50.236;11.734;2023-12-22T09:25:59;0.70;;;0.70;;
29030;SDS011;16122;50.236;11.734;2023-12-22T09:28:24;1.67;;;0.80;;
29030;SDS011;16122;50.236;11.734;2023-12-22T09:30:50;1.20;;;0.80;;
29030;SDS011;16122;50.236;11.734;2023-12-22T09:33:16;3.30;;;0.80;;
29030;SDS011;16122;50.236;11.734;2023-12-22T09:35:42;1.07;;;0.60;;
29030;SDS011;16122;50.236;11.734;2023-12-22T09:38:08;0.80;;;0.70;;
29030;SDS011;16122;50.236;11.734;2023-12-22T09:40:35;2.73;;;0.67;;
29030;SDS011;16122;50.236;11.734;2023-12-22T09:43:04;0.70;;;0.60;;
29030;SDS011;16122;50.236;11.734;2023-12-22T09:45:35;1.30;;;0.70;;
29030;SDS011;16122;50.236;11.734;2023-12-22T09:48:03;1.47;;;0.90;;
29030;SDS011;16122;50.236;11.734;2023-12-22T09:50:30;0.67;;;0.60;;
29030;SDS011;16122;50.236;11.734;2023-12-22T09:52:57;0.90;;;0.80;;
29030;SDS011;16122;50.236;11.734;2023-12-22T09:55:23;2.50;;;1.40;;
29030;SDS011;16122;50.236;11.734;2023-12-22T09:57:50;25.73;;;8.00;;
29030;SDS011;16122;50.236;11.734;2023-12-22T10:00:17;40.93;;;12.97;;
29030;SDS011;16122;50.236;11.734;2023-12-22T10:02:44;41.40;;;11.63;;
29030;SDS011;16122;50.236;11.734;2023-12-22T10:05:11;46.00;;;13.13;;
29030;SDS011;16122;50.236;11.734;2023-12-22T10:07:41;37.07;;;11.37;;
29030;SDS011;16122;50.236;11.734;2023-12-22T10:10:09;36.60;;;11.33;;
29030;SDS011;16122;50.236;11.734;2023-12-22T10:12:37;41.87;;;10.60;;
29030;SDS011;16122;50.236;11.734;2023-12-22T10:15:05;40.03;;;11.20;;
29030;SDS011;16122;50.236;11.734;2023-12-22T10:17:34;33.97;;;10.27;;
29030;SDS011;16122;50.236;11.734;2023-12-22T10:20:01;31.00;;;10.47;;
29030;SDS011;16122;50.236;11.734;2023-12-22T10:22:28;28.03;;;9.70;;
29030;SDS011;16122;50.236;11.734;2023-12-22T10:24:54;35.20;;;10.23;;
29030;SDS011;16122;50.236;11.734;2023-12-22T10:27:20;37.60;;;10.80;;
29030;SDS011;16122;50.236;11.734;2023-12-22T10:29:54;32.57;;;9.37;;
29030;SDS011;16122;50.236;11.734;2023-12-22T10:32:21;34.27;;;10.53;;
29030;SDS011;16122;50.236;11.734;2023-12-22T10:34:48;30.33;;;9.50;;
29030;SDS011;16122;50.236;11.734;2023-12-22T10:37:16;25.23;;;8.80;;
29030;SDS011;16122;50.236;11.734;2023-12-22T10:39:42;25.90;;;8.30;;
29030;SDS011;16122;50.236;11.734;2023-12-22T10:42:08;28.43;;;9.33;;
29030;SDS011;16122;50.236;11.734;2023-12-22T10:44:35;24.47;;;7.67;;
29030;SDS011;16122;50.236;11.734;2023-12-22T10:47:05;29.03;;;7.70;;
29030;SDS011;16122;50.236;11.734;2023-12-22T10:49:31;23.70;;;7.57;;
29030;SDS011;16122;50.236;11.734;2023-12-22T10:51:59;23.50;;;6.20;;
29030;SDS011;16122;50.236;11.734;2023-12-22T10:54:25;20.97;;;6.60;;
29030;SDS011;16122;50.236;11.734;2023-12-22T10:56:51;22.37;;;6.07;;
29030;SDS011;16122;50.236;11.734;2023-12-22T10:59:22;21.70;;;6.80;;
29030;SDS011;16122;50.236;11.734;2023-12-22T11:01:48;26.57;;;6.57;;
29030;SDS011;16122;50.236;11.734;2023-12-22T11:04:17;16.77;;;6.50;;
29030;SDS011;16122;50.236;11.734;2023-12-22T11:06:45;17.80;;;5.87;;
29030;SDS011;16122;50.236;11.734;2023-12-22T11:09:15;19.23;;;5.50;;
29030;SDS011;16122;50.236;11.734;2023-12-22T11:11:42;13.30;;;5.00;;
29030;SDS011;16122;50.236;11.734;2023-12-22T11:14:08;13.20;;;5.00;;
29030;SDS011;16122;50.236;11.734;2023-12-22T11:16:35;17.53;;;5.00;;
29030;SDS011;16122;50.236;11.734;2023-12-22T11:19:02;14.60;;;4.63;;
29030;SDS011;16122;50.236;11.734;2023-12-22T11:21:28;18.70;;;5.03;;
29030;SDS011;16122;50.236;11.734;2023-12-22T11:23:55;14.93;;;4.50;;
29030;SDS011;16122;50.236;11.734;2023-12-22T11:26:23;13.90;;;5.60;;
29030;SDS011;16122;50.236;11.734;2023-12-22T11:28:51;14.80;;;4.33;;
29030;SDS011;16122;50.236;11.734;2023-12-22T11:31:17;10.20;;;3.93;;
29030;SDS011;16122;50.236;11.734;2023-12-22T11:33:44;12.70;;;4.10;;
29030;SDS011;16122;50.236;11.734;2023-12-22T11:36:15;13.00;;;4.57;;
29030;SDS011;16122;50.236;11.734;2023-12-22T11:38:43;10.13;;;4.00;;
29030;SDS011;16122;50.236;11.734;2023-12-22T11:41:24;10.30;;;4.60;;
29030;SDS011;16122;50.236;11.734;2023-12-22T11:43:52;12.00;;;4.50;;
29030;SDS011;16122;50.236;11.734;2023-12-22T11:46:21;9.50;;;4.13;;
29030;SDS011;16122;50.236;11.734;2023-12-22T11:48:52;10.63;;;3.87;;
29030;SDS011;16122;50.236;11.734;2023-12-22T11:51:18;12.30;;;4.07;;
29030;SDS011;16122;50.236;11.734;2023-12-22T11:53:44;10.60;;;3.77;;
29030;SDS011;16122;50.236;11.734;2023-12-22T11:56:11;10.73;;;3.60;;
29030;SDS011;16122;50.236;11.734;2023-12-22T11:58:39;10.90;;;4.20;;
29030;SDS011;16122;50.236;11.734;2023-12-22T12:01:14;14.53;;;3.70;;
29030;SDS011;16122;50.236;11.734;2023-12-22T12:03:50;9.80;;;3.13;;
29030;SDS011;16122;50.236;11.734;2023-12-22T12:08:51;8.97;;;3.37;;
29030;SDS011;16122;50.236;11.734;2023-12-22T12:11:18;9.50;;;3.60;;
29030;SDS011;16122;50.236;11.734;2023-12-22T12:13:45;8.63;;;3.90;;
29030;SDS011;16122;50.236;11.734;2023-12-22T12:16:15;9.63;;;3.60;;
29030;SDS011;16122;50.236;11.734;2023-12-22T12:18:48;8.97;;;3.47;;
29030;SDS011;16122;50.236;11.734;2023-12-22T12:21:15;10.40;;;3.53;;
29030;SDS011;16122;50.236;11.734;2023-12-22T12:23:41;8.13;;;3.40;;
29030;SDS011;16122;50.236;11.734;2023-12-22T12:26:08;8.53;;;3.73;;
29030;SDS011;16122;50.236;11.734;2023-12-22T12:28:35;6.93;;;3.10;;
29030;SDS011;16122;50.236;11.734;2023-12-22T12:31:05;14.10;;;3.83;;
29030;SDS011;16122;50.236;11.734;2023-12-22T12:33:32;13.93;;;3.80;;
29030;SDS011;16122;50.236;11.734;2023-12-22T12:35:58;7.87;;;3.00;;
29030;SDS011;16122;50.236;11.734;2023-12-22T12:41:16;6.70;;;2.77;;
29030;SDS011;16122;50.236;11.734;2023-12-22T12:43:49;4.93;;;3.07;;
29030;SDS011;16122;50.236;11.734;2023-12-22T12:46:16;9.23;;;2.73;;
29030;SDS011;16122;50.236;11.734;2023-12-22T12:48:42;5.90;;;2.63;;
29030;SDS011;16122;50.236;11.734;2023-12-22T12:51:08;8.00;;;2.57;;
29030;SDS011;16122;50.236;11.734;2023-12-22T12:53:34;7.30;;;2.70;;
29030;SDS011;16122;50.236;11.734;2023-12-22T12:56:04;8.03;;;2.80;;
29030;SDS011;16122;50.236;11.734;2023-12-22T12:58:30;7.53;;;3.30;;
29030;SDS011;16122;50.236;11.734;2023-12-22T13:01:04;9.97;;;2.73;;
29030;SDS011;16122;50.236;11.734;2023-12-22T13:03:31;7.87;;;2.87;;
29030;SDS011;16122;50.236;11.734;2023-12-22T13:06:07;7.47;;;2.90;;
29030;SDS011;16122;50.236;11.734;2023-12-22T13:08:33;7.97;;;2.63;;
29030;SDS011;16122;50.236;11.734;2023-12-22T13:10:59;6.20;;;2.60;;
29030;SDS011;16122;50.236;11.734;2023-12-22T13:13:29;6.40;;;2.80;;
29030;SDS011;16122;50.236;11.734;2023-12-22T13:15:55;5.70;;;2.30;;
29030;SDS011;16122;50.236;11.734;2023-12-22T13:18:21;6.10;;;2.00;;
29030;SDS011;16122;50.236;11.734;2023-12-22T13:20:47;3.50;;;2.37;;
29030;SDS011;16122;50.236;11.734;2023-12-22T13:23:16;5.63;;;2.40;;
29030;SDS011;16122;50.236;11.734;2023-12-22T13:25:43;7.93;;;2.43;;
29030;SDS011;16122;50.236;11.734;2023-12-22T13:28:09;4.43;;;2.20;;
29030;SDS011;16122;50.236;11.734;2023-12-22T13:30:38;5.40;;;2.57;;
29030;SDS011;16122;50.236;11.734;2023-12-22T13:33:09;8.50;;;2.10;;
29030;SDS011;16122;50.236;11.734;2023-12-22T13:35:35;4.10;;;2.27;;
29030;SDS011;16122;50.236;11.734;2023-12-22T13:38:05;4.50;;;2.17;;
29030;SDS011;16122;50.236;11.734;2023-12-22T13:40:32;5.97;;;2.10;;
29030;SDS011;16122;50.236;11.734;2023-12-22T13:42:58;4.23;;;2.20;;
29030;SDS011;16122;50.236;11.734;2023-12-22T13:45:27;5.20;;;2.50;;
29030;SDS011;16122;50.236;11.734;2023-12-22T13:47:53;4.90;;;2.30;;
29030;SDS011;16122;50.236;11.734;2023-12-22T13:50:19;3.97;;;1.90;;
29030;SDS011;16122;50.236;11.734;2023-12-22T13:52:48;3.20;;;1.87;;
29030;SDS011;16122;50.236;11.734;2023-12-22T13:55:16;6.87;;;2.30;;
29030;SDS011;16122;50.236;11.734;2023-12-22T13:57:44;10.27;;;2.77;;
29030;SDS011;16122;50.236;11.734;2023-12-22T14:02:42;6.97;;;2.30;;
29030;SDS011;16122;50.236;11.734;2023-12-22T14:05:08;3.37;;;1.83;;
29030;SDS011;16122;50.236;11.734;2023-12-22T14:07:34;4.33;;;2.20;;
29030;SDS011;16122;50.236;11.734;2023-12-22T14:10:06;3.63;;;2.23;;
29030;SDS011;16122;50.236;11.734;2023-12-22T14:12:32;7.80;;;2.37;;
29030;SDS011;16122;50.236;11.734;2023-12-22T14:14:58;2.87;;;1.87;;
29030;SDS011;16122;50.236;11.734;2023-12-22T14:17:24;2.57;;;1.93;;
29030;SDS011;16122;50.236;11.734;2023-12-22T14:19:51;4.97;;;2.20;;
29030;SDS011;16122;50.236;11.734;2023-12-22T14:22:16;3.40;;;1.50;;
29030;SDS011;16122;50.236;11.734;2023-12-22T14:24:42;3.77;;;1.87;;
29030;SDS011;16122;50.236;11.734;2023-12-22T14:27:08;6.00;;;2.20;;
29030;SDS011;16122;50.236;11.734;2023-12-22T14:29:37;3.10;;;2.10;;
29030;SDS011;16122;50.236;11.734;2023-12-22T14:32:05;2.53;;;1.50;;
29030;SDS011;16122;50.236;11.734;2023-12-22T14:34:33;4.27;;;1.70;;
29030;SDS011;16122;50.236;11.734;2023-12-22T14:37:00;4.37;;;2.03;;
29030;SDS011;16122;50.236;11.734;2023-12-22T14:39:26;3.80;;;2.57;;